Terminal Aerodrome Forecast
Issued by NWS Twin Cities, MN

Home | Current Version | Previous Version | Graphics & Text | Print | Product List | Glossary On
Versions: 1 2 3 4 5 6 7 8 9 10 11 12 13 14 15 16 17 18
000
FTUS43 KMPX 161400 AAA
TAFEAU
TAF AMD
KEAU 161442Z 1615/1712 10015G25KT 5SM -SN OVC035
      TEMPO 1615/1618 2SM -SN BR OVC025
     FM161800 13015G24KT P6SM OVC035
     FM162300 12014G23KT 4SM -RA BR OVC010
     FM170600 15010KT 3SM -RASN BR OVC010=

USA.gov is the U.S. government's official web portal to all federal, state and local government web resources and services.